Time;durP1;ratioP1;P1;durP2;ratioP2;P2;SDS_P1;SDS_P2;PMS_P1;PMS_P2;Temp;Humidity;BMP_temperature;BMP_pressure;BME280_temperature;BME280_humidity;BME280_pressure;Samples;Min_cycle;Max_cycle;Signal;HPM_P1;HPM_P2
2021/06/18 00:00:38;;;;;;;7.85;7.10;;;;;;;23.22;60.36;100529.81;5083356;28;20223;-66
2021/06/18 00:03:05;;;;;;;7.25;6.57;;;;;;;23.15;60.63;100535.94;5075576;28;20212;-66
2021/06/18 00:05:32;;;;;;;8.38;7.57;;;;;;;23.10;60.73;100523.97;5080096;28;20201;-65
2021/06/18 00:08:00;;;;;;;8.48;7.32;;;;;;;23.06;61.00;100526.19;5074543;28;20244;-65
2021/06/18 00:10:27;;;;;;;7.97;7.22;;;;;;;23.00;61.01;100521.47;5083762;28;20201;-65
2021/06/18 00:12:54;;;;;;;7.15;6.45;;;;;;;22.97;61.28;100515.53;5077558;28;20209;-65
2021/06/18 00:15:21;;;;;;;7.22;6.50;;;;;;;22.95;61.31;100517.59;5082051;28;20226;-65
2021/06/18 00:17:47;;;;;;;7.85;7.20;;;;;;;22.95;61.36;100518.44;5087947;28;20217;-65
2021/06/18 00:20:14;;;;;;;7.00;6.40;;;;;;;22.94;61.31;100510.47;5086159;28;20211;-65
2021/06/18 00:22:41;;;;;;;7.25;6.55;;;;;;;22.93;61.15;100515.06;5077792;28;20209;-65
2021/06/18 00:25:11;;;;;;;7.60;6.85;;;;;;;22.92;61.20;100513.38;5077373;28;20200;-66
2021/06/18 00:27:38;;;;;;;8.15;6.63;;;;;;;22.87;60.97;100523.09;5079811;28;20228;-65
2021/06/18 00:30:07;;;;;;;8.55;7.63;;;;;;;22.77;61.03;100516.00;5072149;28;20216;-66
2021/06/18 00:32:34;;;;;;;9.68;7.35;;;;;;;22.69;61.37;100520.63;5086634;28;20205;-66
2021/06/18 00:35:00;;;;;;;9.57;7.28;;;;;;;22.63;61.58;100514.03;5089078;28;20207;-65
2021/06/18 00:37:27;;;;;;;7.68;6.72;;;;;;;22.60;61.82;100513.53;5089847;28;20228;-66
2021/06/18 00:39:55;;;;;;;8.30;7.50;;;;;;;22.56;61.96;100513.06;5072191;28;20204;-66
2021/06/18 00:42:23;;;;;;;7.47;6.80;;;;;;;22.54;62.02;100508.84;5082790;28;20264;-65
2021/06/18 00:44:49;;;;;;;8.27;7.57;;;;;;;22.49;62.07;100512.06;5077239;28;20205;-65
2021/06/18 00:47:20;;;;;;;7.50;6.55;;;;;;;22.44;62.22;100511.75;5071290;28;20618;-68
2021/06/18 00:49:47;;;;;;;9.27;7.40;;;;;;;22.38;62.29;100516.03;5078484;28;20207;-66
2021/06/18 00:52:14;;;;;;;7.18;6.50;;;;;;;22.36;62.57;100518.09;5077868;28;20211;-65
2021/06/18 00:54:42;;;;;;;8.73;7.65;;;;;;;22.37;62.49;100535.22;5083778;28;20201;-66
2021/06/18 00:57:09;;;;;;;8.52;7.88;;;;;;;22.36;62.76;100557.94;5093857;28;20230;-66
2021/06/18 00:59:37;;;;;;;8.75;8.00;;;;;;;22.32;62.71;100552.00;5095316;28;20207;-65
2021/06/18 01:02:04;;;;;;;8.68;7.88;;;;;;;22.28;63.08;100536.25;5081843;28;20207;-66
2021/06/18 01:04:33;;;;;;;8.57;7.68;;;;;;;22.23;63.62;100550.31;5095681;28;20199;-67
2021/06/18 01:07:03;;;;;;;8.73;7.93;;;;;;;22.22;63.75;100542.38;5083660;28;20246;-65
2021/06/18 01:09:37;;;;;;;7.90;7.13;;;;;;;22.20;63.91;100530.88;5085970;28;20196;-66
2021/06/18 01:12:09;;;;;;;7.95;7.35;;;;;;;22.21;63.90;100536.13;5076721;28;20200;-66
2021/06/18 01:14:42;;;;;;;7.80;7.10;;;;;;;22.22;63.79;100529.66;5082109;28;20215;-66
2021/06/18 01:17:18;;;;;;;9.40;7.50;;;;;;;22.25;63.55;100526.59;5083774;28;20230;-65
2021/06/18 01:20:01;;;;;;;11.55;8.23;;;;;;;22.28;63.51;100519.97;5082725;28;20207;-66
2021/06/18 01:22:31;;;;;;;11.95;7.85;;;;;;;22.29;63.49;100516.25;5078758;28;20196;-65
2021/06/18 01:25:04;;;;;;;10.48;8.05;;;;;;;22.27;63.31;100512.84;5080620;28;20199;-66
2021/06/18 01:27:41;;;;;;;10.02;8.05;;;;;;;22.22;63.27;100512.53;5087584;28;20243;-67
2021/06/18 01:30:12;;;;;;;10.73;7.97;;;;;;;22.17;63.32;100513.91;5086338;28;20200;-65
2021/06/18 01:32:44;;;;;;;9.85;8.35;;;;;;;22.14;63.72;100525.13;5078294;28;20211;-65
2021/06/18 01:35:15;;;;;;;10.80;8.48;;;;;;;22.10;63.64;100525.63;5084590;28;20295;-65
2021/06/18 01:37:43;;;;;;;14.00;8.77;;;;;;;22.02;63.75;100525.69;5077415;28;20247;-65
2021/06/18 01:40:12;;;;;;;10.45;8.70;;;;;;;21.94;64.02;100517.50;5082909;28;20207;-65
2021/06/18 01:42:41;;;;;;;8.48;7.65;;;;;;;21.86;64.20;100526.50;5083159;28;20206;-65
2021/06/18 01:45:11;;;;;;;9.80;8.30;;;;;;;21.80;64.24;100529.94;5079700;28;20212;-65
2021/06/18 01:47:40;;;;;;;9.32;8.15;;;;;;;21.76;64.70;100529.41;5093522;28;20238;-66
2021/06/18 01:50:09;;;;;;;10.38;8.20;;;;;;;21.75;64.66;100530.44;5077827;28;20216;-66
2021/06/18 01:52:38;;;;;;;8.77;8.05;;;;;;;21.78;64.76;100534.66;5083460;28;20200;-65
2021/06/18 01:55:07;;;;;;;9.13;8.05;;;;;;;21.78;64.94;100526.53;5076768;28;20577;-65
2021/06/18 01:57:36;;;;;;;8.65;7.78;;;;;;;21.80;64.97;100519.09;5083543;28;20219;-66
2021/06/18 02:00:07;;;;;;;9.70;7.50;;;;;;;21.82;64.64;100530.59;5084059;28;20204;-66
2021/06/18 02:02:35;;;;;;;7.17;6.53;;;;;;;21.85;64.42;100532.13;5079168;28;20256;-66
2021/06/18 02:05:04;;;;;;;7.73;6.90;;;;;;;21.87;64.43;100525.50;5082495;28;20215;-65
2021/06/18 02:07:32;;;;;;;7.37;6.67;;;;;;;21.90;64.31;100525.16;5076752;28;20258;-65
2021/06/18 02:10:00;;;;;;;9.32;6.47;;;;;;;21.94;63.94;100518.38;5079331;28;20220;-65
2021/06/18 02:12:27;;;;;;;7.63;6.47;;;;;;;21.98;63.91;100516.16;5076511;28;20680;-66
2021/06/18 02:14:56;;;;;;;7.37;6.67;;;;;;;22.01;63.77;100524.81;5081967;28;20212;-67
2021/06/18 02:17:24;;;;;;;7.90;7.20;;;;;;;22.03;63.59;100522.78;5079426;28;20226;-66
2021/06/18 02:19:56;;;;;;;7.43;6.75;;;;;;;22.04;63.38;100526.31;5086830;28;20225;-66
2021/06/18 02:22:24;;;;;;;10.32;6.82;;;;;;;22.07;63.60;100524.09;5077063;28;20205;-66
2021/06/18 02:24:53;;;;;;;7.70;6.80;;;;;;;22.09;63.47;100518.50;5082206;28;20219;-66
2021/06/18 02:27:20;;;;;;;8.13;7.40;;;;;;;22.10;63.57;100529.19;5083758;28;20237;-65
2021/06/18 02:29:47;;;;;;;8.02;7.22;;;;;;;22.12;63.74;100524.44;5078676;28;20208;-66
2021/06/18 02:32:14;;;;;;;10.00;7.78;;;;;;;22.11;63.54;100539.03;5081138;28;20204;-65
2021/06/18 02:34:41;;;;;;;12.07;7.67;;;;;;;22.03;63.04;100543.63;5078049;28;20309;-67
2021/06/18 02:37:10;;;;;;;12.55;8.07;;;;;;;21.91;63.22;100545.81;5079414;28;20232;-66
2021/06/18 02:39:38;;;;;;;11.07;7.37;;;;;;;21.82;63.40;100547.72;5076512;28;20204;-65
2021/06/18 02:42:05;;;;;;;8.20;7.40;;;;;;;21.78;63.83;100534.66;5078450;28;20200;-65
2021/06/18 02:44:32;;;;;;;11.07;7.60;;;;;;;21.74;64.30;100538.72;5075480;28;20689;-66
2021/06/18 02:47:04;;;;;;;8.48;7.65;;;;;;;21.73;64.82;100534.34;5077374;28;20235;-66
2021/06/18 02:49:39;;;;;;;8.33;7.53;;;;;;;21.70;64.90;100540.94;5080089;28;20220;-66
2021/06/18 02:52:10;;;;;;;10.03;8.73;;;;;;;21.69;65.44;100543.81;5075350;28;20198;-65
2021/06/18 02:54:44;;;;;;;9.50;8.80;;;;;;;21.72;65.88;100548.91;5079564;28;20201;-65
2021/06/18 02:57:18;;;;;;;10.45;9.32;;;;;;;21.75;66.27;100545.84;5083437;28;20223;-65
2021/06/18 02:59:52;;;;;;;9.73;8.82;;;;;;;21.75;66.39;100543.13;5076787;28;20230;-66
2021/06/18 03:02:24;;;;;;;10.05;9.23;;;;;;;21.76;66.81;100537.56;5077286;28;20208;-65
2021/06/18 03:04:54;;;;;;;10.37;9.43;;;;;;;21.77;67.16;100544.66;5076922;28;20587;-65
2021/06/18 03:07:27;;;;;;;11.80;9.07;;;;;;;21.78;67.12;100548.22;5081221;28;20236;-66
2021/06/18 03:09:57;;;;;;;10.00;9.00;;;;;;;21.79;67.49;100547.22;5084016;28;20199;-66
2021/06/18 03:12:26;;;;;;;10.00;9.10;;;;;;;21.78;67.30;100551.78;5077950;28;20208;-67
2021/06/18 03:14:56;;;;;;;11.57;8.20;;;;;;;21.77;66.93;100538.41;5073695;28;20207;-65
2021/06/18 03:17:24;;;;;;;10.15;9.13;;;;;;;21.70;66.66;100540.09;5080601;28;20230;-66
2021/06/18 03:19:54;;;;;;;12.57;9.17;;;;;;;21.63;66.76;100539.09;5083802;28;20227;-65
2021/06/18 03:22:23;;;;;;;9.55;8.50;;;;;;;21.60;67.17;100542.16;5084659;28;20208;-66
2021/06/18 03:24:52;;;;;;;10.67;9.07;;;;;;;21.61;67.53;100543.84;5090748;28;20916;-65
2021/06/18 03:27:20;;;;;;;9.57;8.53;;;;;;;21.62;67.67;100548.25;5079550;28;20234;-66
2021/06/18 03:29:48;;;;;;;9.05;7.90;;;;;;;21.64;67.56;100551.63;5083443;28;20625;-66
2021/06/18 03:32:15;;;;;;;9.23;7.90;;;;;;;21.60;67.23;100543.00;5072926;28;20901;-66
2021/06/18 03:34:43;;;;;;;10.70;8.57;;;;;;;21.57;66.88;100542.47;5086322;28;20212;-65
2021/06/18 03:37:10;;;;;;;10.27;8.67;;;;;;;21.47;66.90;100543.53;5078035;28;20256;-66
2021/06/18 03:39:38;;;;;;;12.93;9.20;;;;;;;21.42;67.17;100547.75;5076026;28;20216;-65
2021/06/18 03:42:06;;;;;;;9.83;8.60;;;;;;;21.38;67.46;100549.09;5077444;28;20225;-66
2021/06/18 03:44:33;;;;;;;11.67;8.57;;;;;;;21.33;67.81;100541.47;5074044;28;20210;-65
2021/06/18 03:47:01;;;;;;;10.10;8.50;;;;;;;21.31;67.56;100546.25;5076237;28;20653;-64
2021/06/18 03:49:30;;;;;;;10.93;9.23;;;;;;;21.29;67.87;100542.00;5072910;28;20230;-65
2021/06/18 03:51:57;;;;;;;10.13;9.23;;;;;;;21.27;68.30;100547.59;5078741;28;20607;-67
2021/06/18 03:54:24;;;;;;;10.33;9.20;;;;;;;21.28;68.50;100549.28;5076468;28;20255;-66
2021/06/18 03:56:53;;;;;;;12.83;9.00;;;;;;;21.30;68.68;100551.81;5076547;28;20230;-65
2021/06/18 03:59:21;;;;;;;8.90;8.20;;;;;;;21.30;69.04;100546.41;5081941;28;20234;-66
2021/06/18 04:01:52;;;;;;;10.47;8.80;;;;;;;21.34;68.84;100550.44;5080962;28;20210;-66
2021/06/18 04:04:20;;;;;;;9.80;8.80;;;;;;;21.38;69.11;100554.50;5084623;28;20546;-65
2021/06/18 04:06:47;;;;;;;10.47;8.90;;;;;;;21.39;68.90;100548.94;5072477;28;20226;-66
2021/06/18 04:09:14;;;;;;;10.67;9.03;;;;;;;21.40;68.87;100556.03;5080252;28;20226;-65
2021/06/18 04:11:42;;;;;;;9.50;8.60;;;;;;;21.39;68.78;100548.06;5071829;28;20302;-65
2021/06/18 04:14:11;;;;;;;10.33;9.33;;;;;;;21.35;68.87;100549.44;5086687;28;20198;-66
2021/06/18 04:16:38;;;;;;;9.83;8.93;;;;;;;21.29;69.04;100548.25;5075452;28;20229;-66
2021/06/18 04:19:07;;;;;;;9.90;8.87;;;;;;;21.26;69.26;100545.03;5085227;28;20212;-67
2021/06/18 04:21:37;;;;;;;10.70;8.60;;;;;;;21.25;69.34;100540.63;5078953;28;20206;-64
2021/06/18 04:24:04;;;;;;;9.63;8.73;;;;;;;21.25;69.72;100538.78;5082949;28;20216;-65
2021/06/18 04:26:31;;;;;;;11.10;9.63;;;;;;;21.28;69.80;100543.00;5086865;28;20225;-66
2021/06/18 04:28:57;;;;;;;10.50;9.40;;;;;;;21.30;70.13;100540.97;5075378;28;20227;-66
2021/06/18 04:31:25;;;;;;;10.83;9.73;;;;;;;21.32;70.21;100544.34;5081409;28;20222;-65
2021/06/18 04:33:52;;;;;;;11.10;9.93;;;;;;;21.32;70.36;100533.50;5081455;28;20204;-66
2021/06/18 04:36:18;;;;;;;16.50;10.00;;;;;;;21.32;70.56;100545.19;5112313;22;20237;-63
2021/06/18 04:38:45;;;;;;;10.50;8.93;;;;;;;21.34;70.52;100543.16;5102456;28;20209;-64
2021/06/18 04:41:11;;;;;;;9.53;8.70;;;;;;;21.37;70.90;100545.53;5097275;28;20198;-65
2021/06/18 04:43:38;;;;;;;9.47;8.60;;;;;;;21.39;71.03;100551.63;5095157;28;20291;-67
2021/06/18 04:46:04;;;;;;;9.90;8.90;;;;;;;21.43;71.08;100544.03;5094421;28;20211;-64
2021/06/18 04:48:34;;;;;;;9.93;8.73;;;;;;;21.47;71.40;100543.53;5094981;28;20220;-64
2021/06/18 04:51:01;;;;;;;9.67;8.57;;;;;;;21.52;71.66;100548.41;5096001;28;20205;-64
2021/06/18 04:53:27;;;;;;;9.47;8.57;;;;;;;21.58;71.75;100552.31;5094342;28;20211;-64
2021/06/18 04:55:54;;;;;;;12.37;8.17;;;;;;;21.63;71.79;100548.06;5098785;28;20212;-64
2021/06/18 04:58:21;;;;;;;9.70;8.37;;;;;;;21.68;71.79;100544.84;5100739;28;20572;-64
2021/06/18 05:00:47;;;;;;;9.83;8.60;;;;;;;21.74;71.27;100550.44;5099083;28;20204;-64
2021/06/18 05:03:14;;;;;;;9.00;8.13;;;;;;;21.77;70.67;100549.25;5095480;28;20573;-63
2021/06/18 05:05:41;;;;;;;9.83;7.73;;;;;;;21.79;70.11;100550.75;5096769;28;20206;-64
2021/06/18 05:08:08;;;;;;;8.40;7.67;;;;;;;21.85;69.76;100556.53;5095841;28;20227;-63
2021/06/18 05:10:34;;;;;;;8.33;7.53;;;;;;;21.89;69.55;100558.69;5095071;28;20667;-64
2021/06/18 05:13:01;;;;;;;10.50;8.87;;;;;;;21.96;69.12;100567.00;5094554;28;20232;-64
2021/06/18 05:15:28;;;;;;;9.10;8.07;;;;;;;22.02;68.91;100569.06;5093257;28;20204;-66
2021/06/18 05:17:54;;;;;;;8.73;7.88;;;;;;;22.08;68.72;100566.50;5094593;28;20229;-68
2021/06/18 05:20:21;;;;;;;8.80;7.57;;;;;;;22.17;68.32;100560.03;5099323;28;20214;-66
2021/06/18 05:22:50;;;;;;;8.65;7.85;;;;;;;22.24;67.77;100557.44;5100291;28;20214;-65
2021/06/18 05:25:17;;;;;;;9.48;8.57;;;;;;;22.33;68.22;100563.72;5105081;28;20203;-64
2021/06/18 05:27:43;;;;;;;11.25;8.18;;;;;;;22.43;68.36;100557.03;5105184;28;20241;-66
2021/06/18 05:30:11;;;;;;;9.13;8.25;;;;;;;22.53;68.22;100551.41;5091165;28;20220;-65
2021/06/18 05:32:38;;;;;;;10.43;9.07;;;;;;;22.61;68.45;100558.66;5101533;28;20309;-62
2021/06/18 05:35:06;;;;;;;10.38;8.75;;;;;;;22.69;68.28;100553.19;5101984;28;20200;-73
2021/06/18 05:37:32;;;;;;;11.27;9.18;;;;;;;22.75;68.03;100553.31;5107222;28;20236;-73
2021/06/18 05:40:00;;;;;;;9.85;8.95;;;;;;;22.83;67.88;100549.75;5101997;28;20199;-73
2021/06/18 05:42:26;;;;;;;9.90;8.98;;;;;;;22.94;67.51;100556.63;5099935;28;20208;-73
2021/06/18 05:44:53;;;;;;;10.32;8.15;;;;;;;23.04;67.10;100565.41;5106599;28;20211;-73
2021/06/18 05:47:20;;;;;;;8.52;7.63;;;;;;;23.12;66.91;100558.03;5102108;28;20711;-73
2021/06/18 05:49:46;;;;;;;9.15;8.25;;;;;;;23.27;66.78;100562.72;5110898;28;20245;-73
2021/06/18 05:52:13;;;;;;;8.63;7.80;;;;;;;23.40;66.38;100561.06;5101044;28;20199;-73
2021/06/18 05:54:39;;;;;;;9.18;7.53;;;;;;;23.54;66.34;100563.00;5112160;28;20214;-74
2021/06/18 05:57:08;;;;;;;8.82;7.80;;;;;;;23.70;65.83;100562.03;5106726;28;20230;-74
2021/06/18 05:59:34;;;;;;;9.35;8.45;;;;;;;23.85;65.28;100573.78;5102556;28;20676;-72
2021/06/18 06:02:01;;;;;;;9.18;8.30;;;;;;;24.02;64.94;100571.72;5108080;28;20203;-73
2021/06/18 06:04:28;;;;;;;9.70;8.70;;;;;;;24.23;64.51;100574.59;5102076;28;20196;-73
2021/06/18 06:06:54;;;;;;;10.23;9.23;;;;;;;24.40;63.41;100574.41;5112792;28;20231;-74
2021/06/18 06:09:21;;;;;;;10.85;9.75;;;;;;;24.54;62.75;100570.84;5102987;28;20224;-73
2021/06/18 06:11:47;;;;;;;16.45;9.27;;;;;;;24.72;62.18;100570.44;5111306;28;20218;-72
2021/06/18 06:14:18;;;;;;;11.70;8.55;;;;;;;24.92;61.13;100566.88;5107177;28;20211;-73
2021/06/18 06:16:46;;;;;;;10.13;8.73;;;;;;;25.09;59.82;100569.41;5107851;28;20227;-73
2021/06/18 06:19:13;;;;;;;10.25;8.60;;;;;;;25.25;58.92;100563.72;5112260;28;20667;-74
2021/06/18 06:21:40;;;;;;;9.50;7.88;;;;;;;25.44;58.92;100568.50;5108572;28;20679;-74
2021/06/18 06:24:08;;;;;;;10.20;7.53;;;;;;;25.67;58.95;100564.75;5113287;28;20236;-75
2021/06/18 06:26:34;;;;;;;8.25;7.55;;;;;;;25.88;58.96;100571.00;5103161;28;20224;-72
2021/06/18 06:29:01;;;;;;;9.27;8.27;;;;;;;26.06;58.57;100570.50;5107907;28;20225;-74
2021/06/18 06:31:29;;;;;;;13.15;8.60;;;;;;;26.20;58.12;100564.09;5105666;28;20589;-73
2021/06/18 06:33:55;;;;;;;8.65;7.75;;;;;;;26.34;57.85;100561.47;5103240;28;20206;-73
2021/06/18 06:36:23;;;;;;;8.32;7.63;;;;;;;26.49;57.60;100562.19;5105225;28;20203;-74
2021/06/18 06:38:49;;;;;;;8.18;7.45;;;;;;;26.59;56.32;100555.28;5099308;28;20225;-73
2021/06/18 06:41:16;;;;;;;9.85;7.72;;;;;;;26.71;56.42;100563.75;5107389;28;20282;-74
2021/06/18 06:43:42;;;;;;;9.52;7.57;;;;;;;26.84;55.89;100561.06;5109315;28;20204;-73
2021/06/18 06:46:09;;;;;;;9.05;7.30;;;;;;;26.97;55.64;100560.28;5105012;28;20200;-74
2021/06/18 06:48:37;;;;;;;9.13;8.10;;;;;;;27.15;55.22;100556.97;5108337;28;20223;-74
2021/06/18 06:51:04;;;;;;;8.40;7.53;;;;;;;27.32;54.99;100569.19;5107419;28;20210;-74
2021/06/18 06:53:30;;;;;;;7.85;7.07;;;;;;;27.49;54.40;100564.16;5104323;28;20207;-73
2021/06/18 06:55:57;;;;;;;9.80;7.78;;;;;;;27.61;53.25;100560.63;5104474;28;20207;-74
2021/06/18 06:58:23;;;;;;;8.30;7.45;;;;;;;27.70;52.84;100564.00;5112280;28;20223;-73
2021/06/18 07:00:50;;;;;;;7.68;6.82;;;;;;;27.81;52.39;100562.50;5097347;28;20657;-74
2021/06/18 07:03:17;;;;;;;8.85;7.60;;;;;;;27.97;52.30;100562.06;5100917;28;20665;-73
2021/06/18 07:05:45;;;;;;;10.93;7.32;;;;;;;28.18;52.26;100564.56;5094570;28;20294;-73
2021/06/18 07:08:15;;;;;;;9.50;7.22;;;;;;;28.34;51.15;100566.03;5091952;28;20216;-74
2021/06/18 07:10:42;;;;;;;7.78;7.13;;;;;;;28.50;51.55;100562.81;5096134;28;20608;-75
2021/06/18 07:13:08;;;;;;;7.47;6.72;;;;;;;28.64;51.73;100561.72;5111014;28;20665;-75
2021/06/18 07:15:35;;;;;;;10.25;7.05;;;;;;;28.73;50.54;100558.72;5105027;28;20225;-74
2021/06/18 07:18:01;;;;;;;8.15;7.22;;;;;;;28.83;50.56;100559.16;5104158;28;20219;-75
2021/06/18 07:20:28;;;;;;;7.55;6.95;;;;;;;28.92;50.01;100553.19;5108117;28;20207;-74
2021/06/18 07:22:56;;;;;;;7.63;7.03;;;;;;;29.10;50.02;100551.59;5105669;28;20207;-74
2021/06/18 07:25:22;;;;;;;8.57;7.57;;;;;;;29.23;49.39;100546.88;5107513;28;20207;-74
2021/06/18 07:27:49;;;;;;;10.43;7.15;;;;;;;29.36;48.90;100551.44;5105550;28;20739;-72
2021/06/18 07:30:16;;;;;;;9.40;6.82;;;;;;;29.50;48.35;100550.31;5111931;28;20242;-74
2021/06/18 07:32:43;;;;;;;8.95;7.03;;;;;;;29.62;48.13;100561.38;5106647;28;20213;-75
2021/06/18 07:35:10;;;;;;;7.85;7.00;;;;;;;29.76;47.48;100559.34;5094894;28;20689;-75
2021/06/18 07:37:37;;;;;;;8.23;7.10;;;;;;;29.87;46.52;100555.91;5100461;28;20231;-74
2021/06/18 07:40:06;;;;;;;9.68;7.07;;;;;;;30.01;46.97;100552.81;5095600;28;20214;-74
2021/06/18 07:42:33;;;;;;;7.85;7.15;;;;;;;30.12;46.13;100548.47;5096816;28;20234;-74
2021/06/18 07:44:59;;;;;;;8.02;7.15;;;;;;;30.24;46.17;100546.66;5096029;28;20211;-74
2021/06/18 07:47:26;;;;;;;8.40;6.97;;;;;;;30.43;46.23;100542.03;5094876;28;20934;-73
2021/06/18 07:49:53;;;;;;;8.63;7.45;;;;;;;30.61;46.26;100541.19;5091607;28;20227;-75
2021/06/18 07:52:19;;;;;;;7.97;7.18;;;;;;;30.75;45.37;100541.84;5092604;28;20203;-75
2021/06/18 07:54:47;;;;;;;8.30;6.68;;;;;;;30.94;45.83;100538.00;5091959;28;20219;-72
2021/06/18 07:57:16;;;;;;;12.45;7.70;;;;;;;31.15;45.44;100529.25;5094923;28;20227;-74
2021/06/18 07:59:42;;;;;;;12.18;6.97;;;;;;;31.35;44.95;100528.94;5094687;28;20672;-74
2021/06/18 08:02:09;;;;;;;9.68;7.05;;;;;;;31.53;44.70;100531.59;5091771;28;20211;-74
2021/06/18 08:04:36;;;;;;;8.50;7.47;;;;;;;31.63;44.37;100531.00;5091398;28;20200;-76
2021/06/18 08:07:02;;;;;;;8.38;6.63;;;;;;;31.68;44.77;100528.44;5097246;28;20587;-74
2021/06/18 08:09:29;;;;;;;7.40;6.68;;;;;;;31.71;44.92;100528.75;5093892;28;20219;-75
2021/06/18 08:11:55;;;;;;;7.45;6.78;;;;;;;31.74;44.97;100517.28;5092285;28;20696;-75
2021/06/18 08:14:23;;;;;;;7.28;6.60;;;;;;;31.81;44.98;100528.19;5090823;28;20211;-75
2021/06/18 08:16:50;;;;;;;8.35;6.93;;;;;;;31.87;44.71;100526.41;5090920;28;20227;-74
2021/06/18 08:19:16;;;;;;;11.63;7.40;;;;;;;31.92;44.16;100527.31;5090982;28;20665;-74
2021/06/18 08:21:43;;;;;;;8.07;6.70;;;;;;;32.01;44.21;100527.81;5091645;28;20516;-76
2021/06/18 08:24:09;;;;;;;7.90;7.05;;;;;;;32.11;43.83;100528.03;5091560;28;20199;-76
2021/06/18 08:26:36;;;;;;;7.45;6.72;;;;;;;32.19;43.69;100524.09;5093520;28;20219;-75
2021/06/18 08:29:02;;;;;;;9.48;7.60;;;;;;;32.26;43.18;100522.06;5093403;28;20203;-64
2021/06/18 08:31:30;;;;;;;8.23;7.50;;;;;;;32.30;42.65;100513.06;5093220;28;20203;-74
2021/06/18 08:33:57;;;;;;;8.90;7.18;;;;;;;32.39;42.69;100513.53;5092908;28;20196;-75
2021/06/18 08:36:24;;;;;;;8.30;7.55;;;;;;;32.48;42.23;100508.47;5092524;28;20247;-75
2021/06/18 08:38:50;;;;;;;9.90;7.18;;;;;;;32.55;42.08;100518.28;5089806;28;20265;-74
2021/06/18 08:41:17;;;;;;;8.95;7.03;;;;;;;32.67;42.25;100508.03;5096491;28;20572;-75
2021/06/18 08:43:44;;;;;;;8.10;6.70;;;;;;;32.82;41.92;100501.16;5090868;28;20215;-75
2021/06/18 08:46:11;;;;;;;8.25;7.47;;;;;;;32.94;41.96;100500.06;5094809;28;20199;-75
2021/06/18 08:48:39;;;;;;;7.75;7.05;;;;;;;33.05;41.91;100488.09;5095681;28;20214;-75
2021/06/18 08:51:05;;;;;;;8.75;6.70;;;;;;;33.16;41.89;100496.53;5090730;28;20239;-75
2021/06/18 08:53:34;;;;;;;8.10;7.28;;;;;;;33.28;41.06;100487.16;5093513;28;20206;-75
2021/06/18 08:56:01;;;;;;;7.68;6.97;;;;;;;33.37;41.03;100487.56;5090974;28;20675;-74
2021/06/18 08:58:28;;;;;;;6.90;5.93;;;;;;;33.47;41.20;100482.22;5091658;28;20257;-75
2021/06/18 09:00:54;;;;;;;6.75;6.05;;;;;;;33.64;40.96;100480.28;5093251;28;20206;-75
2021/06/18 09:03:41;;;;;;;7.53;5.93;;;;;;;33.75;40.17;100473.81;5090552;28;20196;-76
2021/06/18 09:06:39;;;;;;;6.15;5.55;;;;;;;33.86;39.56;100480.34;5093065;28;20211;-75
2021/06/18 09:09:11;;;;;;;6.45;5.95;;;;;;;33.94;39.75;100476.31;4990418;28;20203;-75
2021/06/18 09:11:39;;;;;;;6.85;6.22;;;;;;;34.02;39.36;100481.41;5071285;28;20200;-75
2021/06/18 09:14:16;;;;;;;6.88;6.18;;;;;;;34.02;38.02;100482.25;5092646;28;20204;-75
2021/06/18 09:16:43;;;;;;;6.47;5.97;;;;;;;34.02;38.80;100473.97;5095354;28;20227;-75
2021/06/18 09:19:25;;;;;;;7.32;5.90;;;;;;;34.12;38.75;100474.09;5095008;28;20692;-74
2021/06/18 09:22:02;;;;;;;6.40;5.80;;;;;;;34.22;38.67;100483.63;5097420;28;20195;-75
2021/06/18 09:24:30;;;;;;;5.95;5.45;;;;;;;34.31;38.78;100469.09;5095641;28;20211;-76
2021/06/18 09:26:57;;;;;;;6.40;5.85;;;;;;;34.35;37.75;100481.34;5095538;28;20220;-75
2021/06/18 09:29:25;;;;;;;10.18;6.25;;;;;;;34.42;37.97;100478.34;5096043;28;20200;-74
2021/06/18 09:31:53;;;;;;;6.40;5.80;;;;;;;34.46;37.72;100471.22;5098242;28;20203;-76
2021/06/18 09:34:49;;;;;;;6.07;5.60;;;;;;;34.55;37.36;100474.38;5095194;28;20215;-75
2021/06/18 09:37:25;;;;;;;9.05;6.03;;;;;;;34.66;37.63;100481.69;5095305;28;20228;-76
2021/06/18 09:40:15;;;;;;;7.68;5.72;;;;;;;34.73;37.41;100483.16;5096005;28;20564;-75
2021/06/18 09:42:52;;;;;;;6.20;5.60;;;;;;;34.79;37.13;100478.53;5094688;28;20197;-76
2021/06/18 09:45:20;;;;;;;6.18;5.53;;;;;;;34.85;37.05;100483.03;5094722;28;20324;-76
2021/06/18 09:47:47;;;;;;;31.77;7.50;;;;;;;34.95;35.84;100493.34;5097565;28;20815;-75
2021/06/18 09:50:26;;;;;;;6.82;6.22;;;;;;;35.04;35.10;100476.03;5098039;28;20246;-76
2021/06/18 09:52:54;;;;;;;194.27;25.17;;;;;;;35.19;34.92;100482.78;5093888;28;20649;-76
2021/06/18 09:55:23;;;;;;;38.22;9.43;;;;;;;35.37;34.64;100476.88;5093473;28;20557;-76
2021/06/18 09:57:54;;;;;;;6.88;6.28;;;;;;;35.56;35.03;100488.38;5094705;28;20216;-77
2021/06/18 10:00:22;;;;;;;6.10;5.50;;;;;;;35.64;35.10;100480.44;5094681;28;20199;-75
2021/06/18 10:02:50;;;;;;;6.00;5.50;;;;;;;35.70;34.33;100473.81;5094059;28;20320;-75
2021/06/18 10:05:18;;;;;;;6.13;5.50;;;;;;;35.73;34.22;100477.97;5096539;28;20204;-76
2021/06/18 10:07:49;;;;;;;6.05;5.55;;;;;;;35.77;33.88;100474.44;5101026;28;20223;-76
2021/06/18 10:10:17;;;;;;;6.00;5.50;;;;;;;35.91;34.43;100482.28;5103894;28;20212;-76
2021/06/18 10:12:45;;;;;;;5.55;5.05;;;;;;;36.01;33.91;100479.56;5103147;28;20204;-76
2021/06/18 10:15:14;;;;;;;6.05;5.15;;;;;;;36.03;32.62;100480.13;5098123;28;20203;-76
2021/06/18 10:17:42;;;;;;;5.30;4.85;;;;;;;36.07;33.13;100472.94;5102468;28;20219;-75
2021/06/18 10:20:11;;;;;;;5.22;4.85;;;;;;;36.03;32.29;100469.03;5098145;28;20192;-75
2021/06/18 10:22:46;;;;;;;6.43;4.78;;;;;;;36.02;32.88;100470.13;5104675;28;20199;-76
2021/06/18 10:25:18;;;;;;;5.78;5.28;;;;;;;36.11;32.46;100474.91;5100601;28;20199;-76
2021/06/18 10:27:47;;;;;;;5.47;4.93;;;;;;;36.11;31.85;100469.38;5097266;28;20659;-75
2021/06/18 10:30:27;;;;;;;5.78;5.03;;;;;;;36.18;31.09;100471.91;5107474;28;20712;-75
2021/06/18 10:32:55;;;;;;;4.85;4.55;;;;;;;36.27;31.12;100472.22;5097572;28;20195;-75
2021/06/18 10:35:46;;;;;;;5.55;5.03;;;;;;;36.37;31.61;100472.28;5103608;28;20575;-75
2021/06/18 10:38:25;;;;;;;4.80;4.40;;;;;;;36.40;30.99;100477.25;5118571;22;20252;-69
2021/06/18 10:40:54;;;;;;;5.38;4.38;;;;;;;36.36;30.64;100460.38;5081020;28;20192;-69
2021/06/18 10:43:21;;;;;;;4.88;4.38;;;;;;;36.37;29.56;100456.44;5078247;28;20563;-72
2021/06/18 10:46:09;;;;;;;5.68;5.10;;;;;;;36.53;30.73;100464.84;5079268;28;20590;-69
2021/06/18 10:49:01;;;;;;;5.53;5.13;;;;;;;36.66;31.28;100454.06;5078699;28;20722;-65
2021/06/18 10:51:47;;;;;;;5.90;5.38;;;;;;;36.81;31.47;100462.44;5079812;28;20219;-63
2021/06/18 10:54:25;;;;;;;5.47;5.13;;;;;;;36.84;30.50;100461.06;5076837;28;20193;-65
2021/06/18 10:56:58;;;;;;;5.38;4.57;;;;;;;36.83;29.72;100453.84;5077813;28;20692;-66
2021/06/18 10:59:29;;;;;;;5.18;4.68;;;;;;;36.87;30.33;100454.97;5081829;28;20317;-67
2021/06/18 11:01:57;;;;;;;6.25;5.05;;;;;;;36.87;29.48;100459.69;5075687;28;20393;-66
2021/06/18 11:04:37;;;;;;;5.65;5.10;;;;;;;36.86;30.38;100450.50;5079644;28;20205;-65
2021/06/18 11:07:19;;;;;;;5.00;4.57;;;;;;;36.95;31.00;100445.22;5076779;28;20235;-66
2021/06/18 11:09:47;;;;;;;4.60;4.25;;;;;;;37.03;31.93;100448.31;5070959;28;20238;-66
2021/06/18 11:19:34;;;;;;;5.13;4.70;;;;;;;36.92;30.83;100448.56;5122944;27;20773;-67
2021/06/18 11:22:37;;;;;;;4.95;4.35;;;;;;;36.91;30.72;100450.50;5126261;27;20195;-67
2021/06/18 11:25:06;;;;;;;5.07;4.60;;;;;;;36.87;29.77;100446.63;5125761;27;20206;-67
2021/06/18 11:27:32;;;;;;;5.15;4.63;;;;;;;36.92;29.58;100446.63;5122517;27;20275;-67
2021/06/18 11:30:24;;;;;;;5.75;5.28;;;;;;;37.02;29.92;100448.59;5126468;27;20247;-67
2021/06/18 11:32:51;;;;;;;5.00;4.40;;;;;;;37.08;29.87;100442.78;5131311;22;20227;-70
2021/06/18 11:35:40;;;;;;;5.25;4.50;;;;;;;37.14;28.96;100441.63;5096118;28;20691;-70
2021/06/18 11:38:15;;;;;;;5.30;4.80;;;;;;;37.21;29.24;100446.13;5100957;28;20226;-71
2021/06/18 11:40:42;;;;;;;5.13;4.53;;;;;;;37.28;30.21;100444.72;5098397;28;20207;-70